ROMMA est une association bénévole à but non lucratif. Votre soutien est indispensable : ADHERER à ROMMA ou FAIRE un DON

Chambon - (38, Isère)

Oisans (2460 m)   Longitude: 06° 10' 42" E   Latitude: 45° 01' 32" N Station partenaire n°803
 

Détail journalier du     <<     >>

Température Humidité Vent Dir Rafale Dir. rafale Neige 1 Neige 2
Heure (°C) (%) (km/h) (km/h) (cm) (cm)
01:00 -1.79021SO27SO04
02:00 -1.79220SO25OSO04
03:00 0.55016SO24SO04
04:00 0.44616SO27OSO03
05:00 -0.86216SO25SO03
06:00 -1.57515OSO23OSO03
07:00 -1.26711OSO22OSO03
08:00 -1.36811SO20OSO03
09:00 -1.06112OSO20OSO03
10:00 -0.6639OSO16OSO03
11:00 0.5726OSO14OSO03
12:00 2.0653NNE13OSO04
13:00 2.4673NNE11NNE04
14:00 3.0734N17OSO03
15:00 3.2703N16OSO03
16:00 3.2703N13NO04
17:00 4.0746OSO17OSO03
18:00 3.9746OSO15OSO03
19:00 1.9825OSO12OSO03
20:00 1.4734SO9OSO04
21:00 5.03312NE31NE03
22:00 4.33314NNE27NE03
23:00 5.3367NNE18NNE03
minuit 5.3384ESE12S03

Graphique du 10-10-2019

 

Serveur OMMA